createdAt,value
2019-03-20T00:01:55.211Z,18.77
2019-03-20T00:04:23.695Z,18.67
2019-03-20T00:06:52.133Z,21.70
2019-03-20T00:09:20.563Z,17.13
2019-03-20T00:11:49.064Z,20.50
2019-03-20T00:14:17.555Z,18.63
2019-03-20T00:16:46.039Z,15.60
2019-03-20T00:19:14.531Z,16.93
2019-03-20T00:21:43.075Z,19.43
2019-03-20T00:24:11.495Z,16.50
2019-03-20T00:26:39.915Z,18.73
2019-03-20T00:29:08.487Z,16.37
2019-03-20T00:31:36.987Z,19.73
2019-03-20T00:34:05.477Z,19.00
2019-03-20T00:36:33.887Z,15.17
2019-03-20T00:39:02.319Z,15.03
2019-03-20T00:41:30.715Z,20.13
2019-03-20T00:43:59.147Z,20.43
2019-03-20T00:46:27.627Z,25.30
2019-03-20T00:48:56.127Z,20.97
2019-03-20T00:51:24.544Z,19.53
2019-03-20T00:53:52.943Z,19.10
2019-03-20T00:56:21.372Z,18.23
2019-03-20T00:58:49.788Z,20.80
2019-03-20T01:01:18.294Z,21.57
2019-03-20T01:03:46.776Z,19.80
2019-03-20T01:06:15.259Z,17.20
2019-03-20T01:08:43.743Z,19.17
2019-03-20T01:11:12.231Z,22.10
2019-03-20T01:13:40.716Z,20.43
2019-03-20T01:16:09.196Z,17.43
2019-03-20T01:18:37.624Z,22.27
2019-03-20T01:21:06.104Z,24.67
2019-03-20T01:23:34.513Z,19.93
2019-03-20T01:26:03.033Z,21.30
2019-03-20T01:28:31.436Z,20.97
2019-03-20T01:30:59.956Z,21.67
2019-03-20T01:33:28.372Z,18.40
2019-03-20T01:35:56.861Z,17.30
2019-03-20T01:38:25.433Z,21.87
2019-03-20T01:40:53.854Z,20.83
2019-03-20T01:43:22.328Z,21.97
2019-03-20T01:45:50.889Z,18.60
2019-03-20T01:48:19.368Z,23.23
2019-03-20T01:50:47.845Z,21.60
2019-03-20T01:53:16.349Z,22.17
2019-03-20T01:55:44.965Z,23.63
2019-03-20T01:58:13.436Z,19.97
2019-03-20T02:00:42.209Z,18.27
2019-03-20T02:03:10.706Z,23.93
2019-03-20T02:05:39.197Z,23.07
2019-03-20T02:08:07.681Z,28.67
2019-03-20T02:10:36.185Z,21.23
2019-03-20T02:13:04.776Z,21.77
2019-03-20T02:15:38.712Z,19.13
2019-03-20T02:18:03.489Z,22.07
2019-03-20T02:20:31.881Z,21.67
2019-03-20T02:23:00.285Z,18.57
2019-03-20T02:25:28.737Z,21.63
2019-03-20T02:27:57.153Z,19.23
2019-03-20T02:30:25.565Z,19.83
2019-03-20T02:32:54.070Z,19.87
2019-03-20T02:35:22.481Z,23.33
2019-03-20T02:37:50.961Z,24.70
2019-03-20T02:40:19.501Z,24.90
2019-03-20T02:42:48.335Z,19.57
2019-03-20T02:45:16.916Z,23.30
2019-03-20T02:47:45.407Z,27.53
2019-03-20T02:50:13.928Z,31.40
2019-03-20T02:52:42.400Z,24.33
2019-03-20T02:55:10.989Z,23.87
2019-03-20T02:57:39.482Z,25.80
2019-03-20T03:00:08.937Z,27.37
2019-03-20T03:02:37.366Z,27.17
2019-03-20T03:05:05.893Z,22.87
2019-03-20T03:07:34.299Z,33.67
2019-03-20T03:10:02.810Z,26.83
2019-03-20T03:12:31.219Z,25.33
2019-03-20T03:14:59.618Z,25.03
2019-03-20T03:17:28.050Z,25.67
2019-03-20T03:19:56.474Z,29.43
2019-03-20T03:22:25.311Z,24.20
2019-03-20T03:24:53.735Z,26.10
2019-03-20T03:27:22.201Z,24.70
2019-03-20T03:29:50.623Z,22.70
2019-03-20T03:32:19.065Z,20.13
2019-03-20T03:34:47.642Z,25.60
2019-03-20T03:37:16.139Z,22.10
2019-03-20T03:39:44.623Z,26.37
2019-03-20T03:42:13.203Z,22.37
2019-03-20T03:44:41.604Z,21.17
2019-03-20T03:47:10.452Z,19.90
2019-03-20T03:49:39.158Z,21.87
2019-03-20T03:52:07.935Z,17.43
2019-03-20T03:54:36.828Z,20.17
2019-03-20T03:57:05.423Z,19.17
2019-03-20T03:59:33.915Z,18.57
2019-03-20T04:02:02.437Z,18.03
2019-03-20T04:04:30.956Z,20.40
2019-03-20T04:06:59.467Z,19.57
2019-03-20T04:09:28.032Z,19.37
2019-03-20T04:11:56.614Z,22.30
2019-03-20T04:14:25.171Z,21.97
2019-03-20T04:16:53.651Z,20.47
2019-03-20T04:19:22.141Z,20.17
2019-03-20T04:21:50.560Z,20.33
2019-03-20T04:24:19.051Z,23.00
2019-03-20T04:26:47.567Z,25.93
2019-03-20T04:29:16.063Z,21.60
2019-03-20T04:31:44.548Z,18.47
2019-03-20T04:34:13.025Z,18.70
2019-03-20T04:36:47.720Z,24.83
2019-03-20T04:39:11.568Z,22.63
2019-03-20T04:41:39.992Z,22.43
2019-03-20T04:44:08.404Z,24.20
2019-03-20T04:46:36.835Z,24.57
2019-03-20T04:49:05.332Z,23.20
2019-03-20T04:51:33.739Z,28.67
2019-03-20T04:54:02.576Z,25.73
2019-03-20T04:56:31.376Z,19.47
2019-03-20T04:58:59.788Z,23.10
2019-03-20T05:01:28.236Z,23.27
2019-03-20T05:03:56.700Z,23.70
2019-03-20T05:06:25.176Z,23.73
2019-03-20T05:08:54.817Z,25.73
2019-03-20T05:11:23.298Z,20.10
2019-03-20T05:13:51.725Z,22.57
2019-03-20T05:16:20.229Z,25.90
2019-03-20T05:18:48.633Z,18.37
2019-03-20T05:21:17.116Z,21.27
2019-03-20T05:23:45.536Z,21.47
2019-03-20T05:26:13.944Z,19.87
2019-03-20T05:28:42.380Z,20.47
2019-03-20T05:31:11.189Z,17.97
2019-03-20T05:33:39.720Z,21.80
2019-03-20T05:36:08.192Z,19.90
2019-03-20T05:38:36.604Z,18.80
2019-03-20T05:41:05.201Z,19.37
2019-03-20T05:43:33.617Z,22.47
2019-03-20T05:46:02.193Z,20.07
2019-03-20T05:48:30.662Z,16.60
2019-03-20T05:50:59.142Z,19.47
2019-03-20T05:53:27.570Z,19.80
2019-03-20T05:55:55.986Z,21.70
2019-03-20T05:58:24.409Z,17.63
2019-03-20T06:00:52.798Z,20.10
2019-03-20T06:03:21.504Z,14.50
2019-03-20T06:05:50.106Z,22.10
2019-03-20T06:08:18.506Z,20.07
2019-03-20T06:10:46.926Z,20.80
2019-03-20T06:13:15.354Z,25.07
2019-03-20T06:15:43.794Z,19.30
2019-03-20T06:18:12.550Z,20.57
2019-03-20T06:20:41.390Z,21.67
2019-03-20T06:23:11.243Z,20.00
2019-03-20T06:25:39.919Z,20.20
2019-03-20T06:28:08.435Z,22.20
2019-03-20T06:30:36.935Z,23.17
2019-03-20T06:33:05.399Z,18.33
2019-03-20T06:35:33.823Z,21.83
2019-03-20T06:38:02.330Z,18.33
2019-03-20T06:40:30.755Z,16.73
2019-03-20T06:42:59.238Z,15.40
2019-03-20T06:45:27.718Z,20.60
2019-03-20T06:47:56.258Z,18.90
2019-03-20T06:50:24.684Z,23.57
2019-03-20T06:52:53.268Z,12.37
2019-03-20T06:55:22.072Z,19.03
2019-03-20T06:57:50.565Z,20.93
2019-03-20T07:00:53.537Z,15.13
2019-03-20T07:03:50.449Z,14.37
2019-03-20T07:06:30.901Z,16.57
2019-03-20T07:09:10.141Z,15.43
2019-03-20T07:11:38.828Z,18.53
2019-03-20T07:14:07.309Z,16.60
2019-03-20T07:16:35.810Z,16.77
2019-03-20T07:19:04.809Z,17.07
2019-03-20T07:21:33.213Z,15.67
2019-03-20T07:24:01.637Z,11.07
2019-03-20T07:26:30.160Z,14.03
2019-03-20T07:28:58.573Z,14.43
2019-03-20T07:31:27.065Z,13.53
2019-03-20T07:33:55.577Z,14.93
2019-03-20T07:36:24.021Z,13.73
2019-03-20T07:38:52.433Z,18.00
2019-03-20T07:41:20.933Z,13.60
2019-03-20T07:43:49.426Z,13.20
2019-03-20T07:46:17.816Z,15.87
2019-03-20T07:48:46.249Z,16.33
2019-03-20T07:51:14.729Z,14.30
2019-03-20T07:53:43.489Z,15.73
2019-03-20T07:56:11.977Z,12.73
2019-03-20T07:58:40.442Z,15.33
2019-03-20T08:01:08.873Z,13.00
2019-03-20T08:03:37.279Z,19.33
2019-03-20T08:06:05.765Z,16.20
2019-03-20T08:08:34.245Z,17.00
2019-03-20T08:11:02.722Z,14.13
2019-03-20T08:13:31.149Z,15.80
2019-03-20T08:15:59.546Z,19.27
2019-03-20T08:18:28.011Z,13.43
2019-03-20T08:20:56.407Z,14.97
2019-03-20T08:23:24.822Z,13.17
2019-03-20T08:25:53.299Z,17.13
2019-03-20T08:28:21.762Z,16.17
2019-03-20T08:30:50.270Z,12.70
2019-03-20T08:33:18.660Z,16.10
2019-03-20T08:35:47.122Z,13.23
2019-03-20T08:38:18.564Z,14.67
2019-03-20T08:40:45.802Z,15.47
2019-03-20T08:43:14.178Z,16.83
2019-03-20T08:45:42.683Z,16.47
2019-03-20T08:48:11.158Z,14.63
2019-03-20T08:50:39.642Z,17.17
2019-03-20T08:53:08.067Z,16.37
2019-03-20T08:55:36.474Z,17.10
2019-03-20T08:58:04.951Z,17.17
2019-03-20T09:00:33.459Z,17.27
2019-03-20T09:03:01.940Z,16.70
2019-03-20T09:05:30.687Z,17.87
2019-03-20T09:07:59.087Z,15.40
2019-03-20T09:10:27.581Z,20.83
2019-03-20T09:12:56.052Z,17.00
2019-03-20T09:15:24.533Z,21.83
2019-03-20T09:17:53.444Z,16.93
2019-03-20T09:20:21.931Z,17.07
2019-03-20T09:22:50.767Z,19.20
2019-03-20T09:25:19.251Z,17.33
2019-03-20T09:27:47.729Z,18.97
2019-03-20T09:30:17.208Z,19.03
2019-03-20T09:32:45.634Z,19.03
2019-03-20T09:35:14.111Z,17.13
2019-03-20T09:37:51.395Z,21.77
2019-03-20T09:40:13.759Z,20.60
2019-03-20T09:42:42.189Z,20.37
2019-03-20T09:45:11.527Z,22.23
2019-03-20T09:47:40.081Z,25.07
2019-03-20T09:50:09.735Z,20.00
2019-03-20T09:52:38.243Z,17.30
2019-03-20T09:55:07.729Z,19.77
2019-03-20T09:57:37.240Z,20.10
2019-03-20T10:00:12.100Z,18.77
2019-03-20T10:02:41.004Z,20.77
2019-03-20T10:05:10.043Z,18.10
2019-03-20T10:07:39.021Z,21.93
2019-03-20T10:10:08.965Z,17.27
2019-03-20T10:12:37.940Z,20.53
2019-03-20T10:15:08.752Z,23.77
2019-03-20T10:17:37.775Z,22.67
2019-03-20T10:20:07.915Z,16.93
2019-03-20T10:22:38.945Z,17.00
2019-03-20T10:25:07.915Z,19.23
2019-03-20T10:27:36.965Z,65.23
2019-03-20T10:30:08.304Z,16.43
2019-03-20T10:32:37.317Z,15.70
2019-03-20T10:35:07.390Z,15.97
2019-03-20T10:37:36.333Z,14.20
2019-03-20T10:40:06.582Z,14.63
2019-03-20T10:42:35.612Z,16.90
2019-03-20T10:45:05.921Z,14.23
2019-03-20T10:47:34.868Z,14.67
2019-03-20T10:50:04.672Z,12.80
2019-03-20T10:52:33.677Z,17.23
2019-03-20T10:55:02.640Z,13.70
2019-03-20T10:57:31.552Z,14.13
2019-03-20T11:00:00.447Z,11.07
2019-03-20T11:02:29.400Z,12.00
2019-03-20T11:04:58.265Z,9.30
2019-03-20T11:07:27.307Z,11.30
2019-03-20T11:09:56.261Z,11.23
2019-03-20T11:12:25.364Z,11.77
2019-03-20T11:14:54.308Z,13.07
2019-03-20T11:17:23.289Z,10.20
2019-03-20T11:19:52.161Z,14.83
2019-03-20T11:22:21.041Z,13.40
2019-03-20T11:24:49.936Z,11.97
2019-03-20T11:27:18.953Z,10.37
2019-03-20T11:29:47.914Z,11.07
2019-03-20T11:32:16.868Z,9.50
2019-03-20T11:34:45.854Z,12.17
2019-03-20T11:37:14.799Z,10.87
2019-03-20T11:39:44.126Z,9.80
2019-03-20T11:42:13.197Z,9.73
2019-03-20T11:44:42.213Z,10.80
2019-03-20T11:47:11.278Z,10.93
2019-03-20T11:49:40.305Z,11.90
2019-03-20T11:52:09.266Z,10.70
2019-03-20T11:54:38.186Z,10.23
2019-03-20T11:57:07.161Z,11.10
2019-03-20T11:59:36.038Z,9.47
2019-03-20T12:02:05.164Z,12.27
2019-03-20T12:04:36.996Z,8.23
2019-03-20T12:07:05.906Z,9.83
2019-03-20T12:09:40.940Z,7.03
2019-03-20T12:12:05.611Z,8.27
2019-03-20T12:14:35.605Z,8.07
2019-03-20T12:17:04.659Z,6.73
2019-03-20T12:19:44.462Z,6.33
2019-03-20T12:22:04.290Z,8.63
2019-03-20T12:24:33.242Z,10.30
2019-03-20T12:27:02.122Z,9.93
2019-03-20T12:29:31.319Z,9.23
2019-03-20T12:32:00.362Z,7.77
2019-03-20T12:34:29.310Z,10.40
2019-03-20T12:36:58.595Z,7.80
2019-03-20T12:39:27.638Z,10.50
2019-03-20T12:41:56.975Z,8.73
2019-03-20T12:44:25.995Z,9.93
2019-03-20T12:46:54.971Z,8.23
2019-03-20T12:49:24.064Z,9.53
2019-03-20T12:51:53.386Z,12.30
2019-03-20T12:54:22.763Z,10.57
2019-03-20T12:56:51.723Z,10.57
2019-03-20T12:59:20.591Z,9.73
2019-03-20T13:01:49.611Z,10.57
2019-03-20T13:04:18.539Z,9.97
2019-03-20T13:06:47.427Z,8.27
2019-03-20T13:09:16.315Z,12.60
2019-03-20T13:11:45.203Z,10.20
2019-03-20T13:14:14.167Z,13.07
2019-03-20T13:16:43.059Z,10.70
2019-03-20T13:19:11.958Z,10.60
2019-03-20T13:21:40.944Z,9.40
2019-03-20T13:24:09.945Z,11.67
2019-03-20T13:26:38.899Z,12.20
2019-03-20T13:29:07.830Z,12.77
2019-03-20T13:31:36.851Z,11.23
2019-03-20T13:34:05.923Z,14.63
2019-03-20T13:36:34.883Z,14.57
2019-03-20T13:39:04.771Z,10.33
2019-03-20T13:41:33.815Z,13.57
2019-03-20T13:44:02.808Z,14.37
2019-03-20T13:46:31.787Z,10.77
2019-03-20T13:49:00.680Z,12.97
2019-03-20T13:51:29.917Z,13.60
2019-03-20T13:53:58.967Z,11.37
2019-03-20T13:56:27.927Z,11.13
2019-03-20T13:58:56.975Z,11.10
2019-03-20T14:01:26.059Z,13.43
2019-03-20T14:03:55.448Z,12.43
2019-03-20T14:06:24.480Z,12.97
2019-03-20T14:08:53.514Z,10.53
2019-03-20T14:11:22.592Z,13.00
2019-03-20T14:13:51.676Z,10.73
2019-03-20T14:16:20.624Z,11.53
2019-03-20T14:18:49.512Z,11.37
2019-03-20T14:21:18.542Z,14.87
2019-03-20T14:23:47.805Z,13.80
2019-03-20T14:26:16.892Z,10.70
2019-03-20T14:28:45.908Z,10.63
2019-03-20T14:31:14.872Z,9.30
2019-03-20T14:33:44.248Z,11.27
2019-03-20T14:36:13.400Z,10.50
2019-03-20T14:38:42.481Z,9.13
2019-03-20T14:41:21.153Z,11.00
2019-03-20T14:43:42.184Z,11.97
2019-03-20T14:46:11.265Z,10.97
2019-03-20T14:48:41.180Z,11.03
2019-03-20T14:51:10.241Z,14.33
2019-03-20T14:53:39.124Z,11.70
2019-03-20T14:56:08.200Z,12.43
2019-03-20T14:58:37.244Z,9.33
2019-03-20T15:01:06.333Z,11.33
2019-03-20T15:03:35.340Z,10.07
2019-03-20T15:06:04.400Z,16.67
2019-03-20T15:08:33.405Z,10.47
2019-03-20T15:11:02.380Z,12.10
2019-03-20T15:13:31.536Z,14.20
2019-03-20T15:16:04.870Z,14.33
2019-03-20T15:18:33.881Z,10.67
2019-03-20T15:21:02.953Z,9.90
2019-03-20T15:23:32.029Z,14.83
2019-03-20T15:26:07.105Z,9.63
2019-03-20T15:28:36.413Z,10.83
2019-03-20T15:31:05.461Z,12.03
2019-03-20T15:33:34.466Z,10.10
2019-03-20T15:36:03.497Z,12.07
2019-03-20T15:38:32.646Z,11.27
2019-03-20T15:41:02.082Z,15.60
2019-03-20T15:43:31.095Z,11.63
2019-03-20T15:46:00.089Z,11.30
2019-03-20T15:48:29.070Z,10.57
2019-03-20T15:50:57.985Z,13.77
2019-03-20T15:53:26.938Z,10.20
2019-03-20T15:55:56.377Z,12.80
2019-03-20T15:58:26.381Z,9.47
2019-03-20T16:00:55.441Z,11.37
2019-03-20T16:03:25.210Z,12.10
2019-03-20T16:05:54.314Z,13.50
2019-03-20T16:08:23.790Z,10.70
2019-03-20T16:10:53.450Z,12.67
2019-03-20T16:13:22.474Z,11.40
2019-03-20T16:15:52.331Z,11.93
2019-03-20T16:18:21.366Z,12.20
2019-03-20T16:20:50.366Z,15.77
2019-03-20T16:23:19.335Z,11.93
2019-03-20T16:25:48.688Z,12.57
2019-03-20T16:28:17.663Z,13.80
2019-03-20T16:30:46.698Z,16.37
2019-03-20T16:33:15.796Z,17.07
2019-03-20T16:35:44.916Z,17.33
2019-03-20T16:38:13.955Z,11.90
2019-03-20T16:40:43.035Z,11.40
2019-03-20T16:43:12.005Z,12.03
2019-03-20T16:45:41.247Z,11.03
2019-03-20T16:48:10.442Z,14.00
2019-03-20T16:50:39.497Z,15.87
2019-03-20T16:53:08.559Z,17.73
2019-03-20T16:55:37.655Z,13.93
2019-03-20T16:58:06.768Z,13.17
2019-03-20T17:00:35.872Z,11.37
2019-03-20T17:03:05.112Z,14.03
2019-03-20T17:05:34.175Z,13.53
2019-03-20T17:08:03.332Z,11.47
2019-03-20T17:10:34.907Z,15.90
2019-03-20T17:13:04.283Z,10.50
2019-03-20T17:15:33.439Z,11.43
2019-03-20T17:18:02.588Z,10.80
2019-03-20T17:20:31.580Z,13.00
2019-03-20T17:23:00.693Z,14.03
2019-03-20T17:25:29.791Z,13.60
2019-03-20T17:27:58.836Z,12.50
2019-03-20T17:30:30.092Z,14.13
2019-03-20T17:32:59.167Z,13.87
2019-03-20T17:35:28.387Z,18.40
2019-03-20T17:37:57.472Z,14.50
2019-03-20T17:40:26.989Z,15.47
2019-03-20T17:42:56.503Z,16.73
2019-03-20T17:45:26.676Z,21.50
2019-03-20T17:47:55.872Z,17.27
2019-03-20T17:50:26.630Z,26.50
2019-03-20T17:52:55.697Z,19.77
2019-03-20T17:55:24.756Z,31.37
2019-03-20T17:57:53.800Z,14.47
2019-03-20T18:00:42.011Z,19.33
2019-03-20T18:03:11.136Z,22.63
2019-03-20T18:05:40.276Z,21.73
2019-03-20T18:08:09.248Z,21.83
2019-03-20T18:10:38.690Z,19.37
2019-03-20T18:13:08.117Z,18.83
2019-03-20T18:15:37.161Z,19.53
2019-03-20T18:18:07.128Z,21.63
2019-03-20T18:20:36.241Z,21.87
2019-03-20T18:23:06.170Z,19.33
2019-03-20T18:25:35.501Z,18.57
2019-03-20T18:28:05.138Z,19.37
2019-03-20T18:30:34.337Z,19.30
2019-03-20T18:33:03.652Z,25.43
2019-03-20T18:35:32.766Z,22.20
2019-03-20T18:38:01.830Z,18.97
2019-03-20T18:40:31.064Z,18.57
2019-03-20T18:43:00.177Z,17.17
2019-03-20T18:45:29.238Z,18.63
2019-03-20T18:47:58.213Z,19.70
2019-03-20T18:50:27.272Z,20.87
2019-03-20T18:52:56.244Z,17.97
2019-03-20T18:55:25.325Z,21.40
2019-03-20T18:57:54.433Z,22.60
2019-03-20T19:00:25.636Z,21.53
2019-03-20T19:02:55.553Z,22.70
2019-03-20T19:05:28.060Z,19.70
2019-03-20T19:07:57.043Z,21.17
2019-03-20T19:10:26.114Z,21.97
2019-03-20T19:12:55.133Z,18.37
2019-03-20T19:15:24.234Z,19.50
2019-03-20T19:17:53.341Z,20.33
2019-03-20T19:20:22.983Z,19.30
2019-03-20T19:22:52.127Z,19.83
2019-03-20T19:25:21.282Z,18.20
2019-03-20T19:27:50.432Z,22.10
2019-03-20T19:30:20.205Z,21.53
2019-03-20T19:32:49.468Z,20.57
2019-03-20T19:35:18.526Z,19.10
2019-03-20T19:37:47.611Z,19.57
2019-03-20T19:40:17.210Z,22.73
2019-03-20T19:42:46.274Z,21.87
2019-03-20T19:45:15.770Z,23.40
2019-03-20T19:47:44.918Z,20.57
2019-03-20T19:50:14.431Z,18.77
2019-03-20T19:52:43.595Z,21.73
2019-03-20T19:55:13.034Z,22.77
2019-03-20T19:57:42.088Z,22.67
2019-03-20T20:00:14.199Z,24.07
2019-03-20T20:02:43.527Z,24.20
2019-03-20T20:05:16.006Z,24.87
2019-03-20T20:07:44.925Z,20.20
2019-03-20T20:10:14.075Z,22.60
2019-03-20T20:12:43.127Z,18.87
2019-03-20T20:15:14.774Z,21.93
2019-03-20T20:17:43.777Z,23.43
2019-03-20T20:20:14.658Z,19.87
2019-03-20T20:22:43.616Z,20.30
2019-03-20T20:25:12.647Z,22.13
2019-03-20T20:27:42.039Z,21.90
2019-03-20T20:30:15.695Z,20.07
2019-03-20T20:32:44.663Z,20.27
2019-03-20T20:35:13.985Z,20.73
2019-03-20T20:37:43.063Z,20.33
2019-03-20T20:40:14.236Z,25.87
2019-03-20T20:42:43.496Z,20.87
2019-03-20T20:45:12.975Z,22.63
2019-03-20T20:47:42.043Z,23.60
2019-03-20T20:50:11.327Z,22.07
2019-03-20T20:52:40.359Z,20.27
2019-03-20T20:55:10.576Z,20.87
2019-03-20T20:57:39.639Z,20.10
2019-03-20T21:00:12.979Z,22.77
2019-03-20T21:02:42.096Z,22.07
2019-03-20T21:05:11.152Z,22.07
2019-03-20T21:07:40.213Z,25.13
2019-03-20T21:10:10.435Z,22.27
2019-03-20T21:12:39.440Z,21.33
2019-03-20T21:15:19.876Z,24.27
2019-03-20T21:18:24.300Z,21.67
2019-03-20T21:20:53.731Z,25.23
2019-03-20T21:24:08.731Z,28.03
2019-03-20T21:26:43.332Z,28.90
2019-03-20T21:29:36.016Z,30.50
2019-03-20T21:32:15.731Z,32.40
2019-03-20T21:35:35.124Z,33.93
2019-03-20T21:38:06.444Z,35.50
2019-03-20T21:41:15.508Z,34.60
2019-03-20T21:44:28.872Z,39.40
2019-03-20T21:47:31.804Z,42.13
2019-03-20T21:50:07.708Z,46.57
2019-03-20T21:52:37.430Z,40.37
2019-03-20T21:55:50.924Z,42.43
2019-03-20T21:58:29.544Z,44.73
2019-03-20T22:01:46.180Z,39.77
2019-03-20T22:04:15.728Z,42.40
2019-03-20T22:07:22.585Z,42.83
2019-03-20T22:10:34.716Z,43.63
2019-03-20T22:13:41.917Z,36.00
2019-03-20T22:16:51.326Z,36.33
2019-03-20T22:19:51.105Z,32.67
2019-03-20T22:23:12.413Z,33.37
2019-03-20T22:26:03.337Z,31.37
2019-03-20T22:29:18.319Z,32.03
2019-03-20T22:32:16.773Z,33.60
2019-03-20T22:35:02.678Z,31.53
2019-03-20T22:37:32.233Z,32.03
2019-03-20T22:41:10.970Z,32.13
2019-03-20T22:43:51.067Z,32.40
2019-03-20T22:47:00.558Z,29.60
2019-03-20T22:49:55.393Z,32.57
2019-03-20T22:53:00.166Z,34.83
2019-03-20T22:55:48.221Z,33.93
2019-03-20T22:58:29.966Z,30.40
2019-03-20T23:00:59.607Z,31.93
2019-03-20T23:03:35.822Z,30.73
2019-03-20T23:06:05.474Z,33.60
2019-03-20T23:08:35.254Z,33.47
2019-03-20T23:11:04.754Z,31.10
2019-03-20T23:13:41.390Z,32.20
2019-03-20T23:16:06.782Z,30.30
2019-03-20T23:18:36.298Z,32.57
2019-03-20T23:21:05.873Z,31.50
2019-03-20T23:23:36.662Z,34.20
2019-03-20T23:26:06.170Z,30.50
2019-03-20T23:28:35.753Z,33.23
2019-03-20T23:31:05.337Z,33.10
2019-03-20T23:33:34.822Z,33.13
2019-03-20T23:36:04.582Z,35.50
2019-03-20T23:38:34.282Z,35.40
2019-03-20T23:41:03.878Z,32.30
2019-03-20T23:43:33.460Z,37.30
2019-03-20T23:46:03.474Z,32.53
2019-03-20T23:48:49.366Z,32.43
2019-03-20T23:51:18.977Z,34.87
2019-03-20T23:53:49.110Z,33.37
2019-03-20T23:56:18.706Z,33.23
2019-03-20T23:58:48.271Z,34.27
